createdAt,value
2023-05-15T00:02:14.789Z,13.10
2023-05-15T00:04:41.874Z,13.00
2023-05-15T00:07:08.977Z,12.90
2023-05-15T00:09:35.957Z,12.70
2023-05-15T00:12:03.626Z,12.60
2023-05-15T00:14:30.617Z,12.40
2023-05-15T00:16:57.560Z,12.50
2023-05-15T00:19:24.492Z,12.80
2023-05-15T00:21:51.637Z,12.70
2023-05-15T00:24:19.409Z,12.70
2023-05-15T00:26:46.461Z,12.70
2023-05-15T00:29:13.351Z,12.80
2023-05-15T00:31:40.383Z,12.90
2023-05-15T00:34:07.493Z,12.50
2023-05-15T00:36:34.406Z,12.20
2023-05-15T00:39:01.336Z,12.10
2023-05-15T00:41:32.478Z,12.00
2023-05-15T00:44:02.206Z,11.90
2023-05-15T00:46:34.958Z,11.90
2023-05-15T00:49:04.574Z,11.70
2023-05-15T00:51:31.451Z,11.80
2023-05-15T00:53:59.668Z,11.90
2023-05-15T00:56:30.698Z,11.80
2023-05-15T00:58:59.803Z,11.80
2023-05-15T01:01:26.788Z,11.90
2023-05-15T01:03:53.980Z,11.90
2023-05-15T01:06:20.979Z,12.00
2023-05-15T01:08:49.869Z,12.00
2023-05-15T01:11:17.928Z,12.10
2023-05-15T01:13:45.009Z,12.10
2023-05-15T01:16:12.100Z,12.00
2023-05-15T01:18:39.135Z,11.80
2023-05-15T01:21:33.297Z,11.90
2023-05-15T01:24:35.796Z,11.80
2023-05-15T01:27:37.290Z,11.70
2023-05-15T01:30:25.292Z,11.70
2023-05-15T01:33:36.198Z,11.60
2023-05-15T01:36:14.801Z,11.60
2023-05-15T01:38:55.695Z,11.50
2023-05-15T01:41:48.155Z,11.60
2023-05-15T01:44:18.611Z,11.50
2023-05-15T01:46:50.374Z,11.50
2023-05-15T01:49:19.908Z,11.50
2023-05-15T01:51:56.056Z,11.50
2023-05-15T01:54:23.276Z,11.50
2023-05-15T01:56:51.292Z,11.70
2023-05-15T01:59:20.241Z,11.60
2023-05-15T02:01:47.833Z,11.60
2023-05-15T02:04:15.530Z,11.40
2023-05-15T02:06:42.951Z,11.50
2023-05-15T02:09:10.696Z,11.40
2023-05-15T02:11:38.366Z,11.20
2023-05-15T02:14:05.566Z,11.20
2023-05-15T02:16:32.641Z,11.30
2023-05-15T02:18:59.676Z,11.30
2023-05-15T02:21:26.592Z,11.30
2023-05-15T02:23:53.553Z,11.30
2023-05-15T02:27:02.836Z,11.20
2023-05-15T02:30:10.022Z,11.30
2023-05-15T02:33:00.941Z,11.40
2023-05-15T02:35:49.241Z,11.30
2023-05-15T02:38:51.245Z,11.20
2023-05-15T02:41:18.999Z,11.30
2023-05-15T02:43:49.033Z,11.30
2023-05-15T02:46:16.396Z,11.20
2023-05-15T02:48:44.274Z,11.00
2023-05-15T02:51:11.641Z,11.00
2023-05-15T02:53:43.048Z,11.10
2023-05-15T02:56:10.450Z,11.10
2023-05-15T02:58:39.385Z,11.10
2023-05-15T03:01:06.933Z,11.10
2023-05-15T03:03:34.064Z,11.00
2023-05-15T03:06:01.469Z,11.10
2023-05-15T03:08:29.076Z,11.00
2023-05-15T03:10:55.991Z,11.20
2023-05-15T03:13:22.931Z,11.30
2023-05-15T03:15:49.919Z,11.10
2023-05-15T03:18:19.035Z,11.10
2023-05-15T03:20:48.903Z,11.10
2023-05-15T03:23:16.119Z,11.00
2023-05-15T03:25:43.044Z,10.90
2023-05-15T03:28:10.140Z,10.90
2023-05-15T03:30:37.155Z,10.70
2023-05-15T03:33:04.231Z,10.70
2023-05-15T03:35:32.505Z,10.50
2023-05-15T03:37:59.555Z,10.50
2023-05-15T03:40:26.494Z,10.40
2023-05-15T03:42:54.470Z,10.40
2023-05-15T03:45:21.601Z,10.30
2023-05-15T03:47:48.701Z,10.30
2023-05-15T03:50:16.202Z,10.20
2023-05-15T03:52:43.214Z,10.20
2023-05-15T03:55:11.314Z,10.30
2023-05-15T03:57:38.643Z,10.20
2023-05-15T04:00:10.253Z,10.20
2023-05-15T04:02:38.143Z,10.00
2023-05-15T04:05:06.821Z,10.00
2023-05-15T04:07:35.859Z,9.90
2023-05-15T04:10:03.529Z,9.90
2023-05-15T04:12:34.112Z,9.90
2023-05-15T04:15:23.778Z,9.90
2023-05-15T04:17:53.553Z,10.20
2023-05-15T04:20:23.234Z,10.40
2023-05-15T04:22:51.169Z,10.60
2023-05-15T04:25:18.505Z,10.80
2023-05-15T04:27:45.966Z,10.90
2023-05-15T04:30:13.691Z,11.00
2023-05-15T04:32:41.330Z,11.30
2023-05-15T04:35:10.682Z,11.30
2023-05-15T04:37:39.693Z,11.30
2023-05-15T04:40:08.177Z,11.50
2023-05-15T04:42:37.776Z,11.70
2023-05-15T04:45:07.461Z,11.70
2023-05-15T04:47:34.665Z,11.80
2023-05-15T04:50:01.555Z,11.90
2023-05-15T04:52:28.445Z,12.00
2023-05-15T04:54:56.012Z,12.20
2023-05-15T04:57:23.349Z,12.40
2023-05-15T04:59:50.469Z,12.50
2023-05-15T05:02:22.514Z,12.50
2023-05-15T05:04:50.103Z,12.60
2023-05-15T05:07:17.117Z,12.70
2023-05-15T05:09:44.420Z,12.80
2023-05-15T05:12:11.630Z,12.90
2023-05-15T05:14:40.476Z,13.00
2023-05-15T05:17:07.452Z,12.70
2023-05-15T05:19:34.446Z,12.60
2023-05-15T05:22:04.723Z,12.50
2023-05-15T05:24:32.517Z,12.50
2023-05-15T05:27:00.481Z,12.50
2023-05-15T05:29:27.440Z,12.50
2023-05-15T05:31:54.687Z,12.80
2023-05-15T05:34:22.100Z,13.10
2023-05-15T05:36:49.625Z,13.20
2023-05-15T05:39:17.396Z,13.10
2023-05-15T05:41:44.995Z,13.00
2023-05-15T05:44:11.996Z,12.90
2023-05-15T05:46:41.002Z,12.90
2023-05-15T05:49:10.135Z,12.80
2023-05-15T05:51:37.148Z,13.00
2023-05-15T05:54:04.202Z,13.00
2023-05-15T05:56:31.508Z,13.20
2023-05-15T05:58:59.603Z,13.30
2023-05-15T06:01:27.638Z,13.40
2023-05-15T06:03:55.975Z,13.60
2023-05-15T06:06:23.396Z,13.70
2023-05-15T06:08:52.199Z,14.00
2023-05-15T06:11:20.030Z,13.90
2023-05-15T06:13:47.021Z,14.00
2023-05-15T06:16:13.927Z,14.40
2023-05-15T06:18:40.892Z,14.60
2023-05-15T06:21:07.837Z,15.00
2023-05-15T06:23:34.753Z,15.00
2023-05-15T06:26:01.763Z,15.00
2023-05-15T06:28:28.907Z,15.20
2023-05-15T06:30:55.885Z,15.30
2023-05-15T06:33:22.829Z,15.30
2023-05-15T06:35:49.845Z,15.40
2023-05-15T06:38:16.767Z,15.20
2023-05-15T06:40:43.640Z,15.30
2023-05-15T06:43:10.605Z,15.70
2023-05-15T06:45:37.505Z,15.60
2023-05-15T06:48:04.758Z,15.70
2023-05-15T06:50:33.369Z,15.70
2023-05-15T06:53:01.232Z,16.10
2023-05-15T06:55:28.389Z,16.30
2023-05-15T06:57:55.475Z,16.50
2023-05-15T07:00:22.532Z,16.30
2023-05-15T07:02:49.505Z,16.40
2023-05-15T07:05:16.749Z,16.50
2023-05-15T07:07:43.902Z,16.60
2023-05-15T07:10:11.143Z,16.40
2023-05-15T07:12:38.032Z,16.20
2023-05-15T07:15:05.948Z,16.00
2023-05-15T07:17:35.311Z,15.90
2023-05-15T07:20:02.371Z,16.10
2023-05-15T07:22:29.386Z,16.70
2023-05-15T07:24:56.298Z,17.00
2023-05-15T07:27:23.297Z,17.30
2023-05-15T07:29:50.471Z,17.30
2023-05-15T07:32:17.387Z,17.30
2023-05-15T07:34:44.394Z,17.10
2023-05-15T07:37:11.293Z,17.60
2023-05-15T07:39:38.262Z,17.90
2023-05-15T07:42:05.444Z,17.80
2023-05-15T07:44:32.533Z,17.90
2023-05-15T07:46:59.695Z,18.00
2023-05-15T07:49:26.702Z,18.30
2023-05-15T07:51:53.826Z,18.20
2023-05-15T07:54:20.878Z,18.20
2023-05-15T07:56:47.925Z,18.30
2023-05-15T07:59:15.168Z,18.10
2023-05-15T08:01:42.130Z,18.00
2023-05-15T08:04:09.891Z,17.70
2023-05-15T08:06:38.296Z,18.10
2023-05-15T08:09:05.340Z,18.10
2023-05-15T08:11:32.216Z,18.20
2023-05-15T08:13:59.533Z,18.30
2023-05-15T08:16:26.742Z,18.80
2023-05-15T08:18:58.193Z,18.90
2023-05-15T08:21:25.174Z,19.40
2023-05-15T08:23:53.761Z,19.50
2023-05-15T08:26:21.105Z,19.70
2023-05-15T08:28:48.060Z,19.60
2023-05-15T08:31:15.005Z,19.60
2023-05-15T08:33:42.035Z,19.40
2023-05-15T08:36:09.402Z,19.20
2023-05-15T08:38:36.317Z,19.00
2023-05-15T08:41:12.821Z,18.70
2023-05-15T08:43:41.705Z,18.80
2023-05-15T08:46:09.049Z,18.80
2023-05-15T08:48:38.396Z,19.50
2023-05-15T08:51:10.601Z,19.90
2023-05-15T08:53:38.168Z,20.00
2023-05-15T08:56:05.599Z,19.90
2023-05-15T08:58:33.512Z,19.70
2023-05-15T09:01:01.290Z,20.00
2023-05-15T09:03:28.456Z,20.30
2023-05-15T09:05:55.901Z,20.90
2023-05-15T09:08:25.697Z,21.00
2023-05-15T09:10:54.241Z,21.10
2023-05-15T09:13:21.133Z,21.30
2023-05-15T09:15:48.255Z,21.40
2023-05-15T09:18:16.323Z,21.40
2023-05-15T09:20:44.332Z,21.10
2023-05-15T09:23:26.924Z,21.10
2023-05-15T09:25:56.596Z,21.00
2023-05-15T09:28:30.617Z,20.80
2023-05-15T09:31:05.611Z,20.70
2023-05-15T09:33:36.050Z,21.00
2023-05-15T09:36:05.542Z,21.20
2023-05-15T09:38:42.481Z,21.00
2023-05-15T09:41:11.463Z,21.30
2023-05-15T09:43:40.410Z,21.50
2023-05-15T09:46:13.022Z,21.90
2023-05-15T09:48:40.225Z,21.90
2023-05-15T09:51:19.769Z,21.70
2023-05-15T09:53:52.131Z,22.10
2023-05-15T09:56:20.355Z,21.90
2023-05-15T09:58:58.790Z,22.10
2023-05-15T10:01:27.618Z,23.10
2023-05-15T10:04:03.641Z,23.70
2023-05-15T10:06:43.187Z,23.70
2023-05-15T10:09:11.296Z,24.20
2023-05-15T10:11:40.819Z,24.20
2023-05-15T10:14:11.198Z,23.40
2023-05-15T10:16:40.362Z,22.50
2023-05-15T10:19:10.353Z,22.50
2023-05-15T10:21:42.225Z,22.70
2023-05-15T10:24:10.914Z,22.60
2023-05-15T10:26:43.383Z,22.20
2023-05-15T10:29:13.431Z,22.00
2023-05-15T10:31:41.683Z,22.40
2023-05-15T10:34:10.377Z,22.70
2023-05-15T10:36:38.832Z,22.90
2023-05-15T10:39:07.736Z,23.40
2023-05-15T10:41:38.365Z,24.20
2023-05-15T10:44:06.438Z,24.10
2023-05-15T10:46:36.166Z,23.50
2023-05-15T10:49:04.409Z,23.30
2023-05-15T10:51:33.201Z,22.90
2023-05-15T10:54:06.371Z,22.10
2023-05-15T10:56:34.920Z,21.70
2023-05-15T10:59:11.217Z,21.20
2023-05-15T11:01:40.670Z,21.10
2023-05-15T11:04:18.730Z,21.00
2023-05-15T11:06:48.810Z,20.50
2023-05-15T11:09:21.963Z,20.20
2023-05-15T11:12:00.242Z,20.20
2023-05-15T11:14:35.355Z,20.40
2023-05-15T11:17:10.464Z,20.50
2023-05-15T11:19:58.309Z,20.50
2023-05-15T11:22:38.833Z,20.30
2023-05-15T11:25:15.953Z,20.00
2023-05-15T11:27:46.354Z,20.00
2023-05-15T11:30:22.845Z,20.10
2023-05-15T11:32:55.863Z,20.10
2023-05-15T11:35:25.975Z,20.00
2023-05-15T11:37:59.850Z,20.40
2023-05-15T11:40:28.931Z,20.70
2023-05-15T11:43:00.368Z,21.50
2023-05-15T11:45:38.418Z,22.30
2023-05-15T11:48:15.674Z,23.00
2023-05-15T11:50:44.461Z,23.50
2023-05-15T11:53:11.782Z,24.10
2023-05-15T11:55:42.238Z,23.50
2023-05-15T11:58:18.621Z,23.10
2023-05-15T12:00:48.943Z,23.00
2023-05-15T12:03:25.277Z,23.00
2023-05-15T12:08:23.946Z,22.40
2023-05-15T12:10:51.913Z,22.00
2023-05-15T12:13:19.137Z,22.10
2023-05-15T12:15:47.084Z,22.10
2023-05-15T12:18:14.369Z,22.90
2023-05-15T12:20:46.630Z,22.60
2023-05-15T12:23:17.921Z,22.80
2023-05-15T12:25:47.500Z,22.60
2023-05-15T12:28:15.215Z,22.30
2023-05-15T12:30:43.132Z,22.30
2023-05-15T12:33:11.375Z,22.60
2023-05-15T12:35:44.686Z,22.80
2023-05-15T12:38:16.644Z,22.80
2023-05-15T12:40:46.485Z,22.70
2023-05-15T12:43:14.503Z,22.30
2023-05-15T12:45:42.295Z,22.20
2023-05-15T12:48:15.217Z,22.30
2023-05-15T12:50:45.475Z,22.00
2023-05-15T12:53:17.949Z,21.10
2023-05-15T12:55:47.058Z,20.70
2023-05-15T12:58:18.810Z,20.90
2023-05-15T13:00:46.761Z,20.80
2023-05-15T13:03:14.505Z,20.30
2023-05-15T13:05:45.350Z,20.10
2023-05-15T13:08:17.577Z,19.30
2023-05-15T13:10:46.205Z,19.00
2023-05-15T13:13:13.726Z,18.90
2023-05-15T13:15:44.683Z,19.00
2023-05-15T13:18:14.030Z,19.00
2023-05-15T13:20:41.815Z,19.00
2023-05-15T13:23:11.284Z,19.10
2023-05-15T13:25:38.200Z,19.30
2023-05-15T13:28:07.668Z,19.40
2023-05-15T13:30:35.590Z,19.70
2023-05-15T13:33:02.692Z,19.70
2023-05-15T13:35:29.769Z,19.80
2023-05-15T13:37:57.122Z,19.70
2023-05-15T13:40:24.625Z,19.60
2023-05-15T13:42:51.707Z,19.60
2023-05-15T13:45:18.815Z,19.80
2023-05-15T13:47:45.762Z,19.80
2023-05-15T13:50:15.356Z,19.70
2023-05-15T13:52:44.236Z,20.00
2023-05-15T13:55:12.465Z,20.00
2023-05-15T13:57:41.306Z,19.80
2023-05-15T14:00:12.663Z,19.70
2023-05-15T14:02:43.049Z,19.70
2023-05-15T14:05:12.711Z,20.00
2023-05-15T14:07:40.471Z,20.00
2023-05-15T14:10:08.313Z,20.10
2023-05-15T14:12:36.769Z,19.90
2023-05-15T14:15:04.869Z,20.10
2023-05-15T14:17:31.804Z,19.80
2023-05-15T14:19:58.889Z,19.90
2023-05-15T14:22:25.805Z,20.20
2023-05-15T14:24:53.612Z,20.50
2023-05-15T14:27:21.192Z,20.50
2023-05-15T14:29:49.220Z,20.20
2023-05-15T14:32:17.371Z,20.40
2023-05-15T14:34:44.425Z,20.40
2023-05-15T14:37:12.453Z,20.30
2023-05-15T14:39:39.475Z,20.20
2023-05-15T14:42:07.411Z,20.10
2023-05-15T14:44:34.985Z,20.40
2023-05-15T14:47:10.284Z,20.20
2023-05-15T14:49:37.836Z,20.00
2023-05-15T14:52:08.314Z,19.90
2023-05-15T14:54:36.067Z,20.00
2023-05-15T14:57:03.800Z,19.70
2023-05-15T14:59:30.853Z,20.00
2023-05-15T15:01:58.092Z,20.20
2023-05-15T15:04:26.683Z,20.50
2023-05-15T15:06:56.879Z,20.50
2023-05-15T15:09:25.395Z,20.30
2023-05-15T15:11:54.466Z,20.20
2023-05-15T15:14:22.073Z,20.00
2023-05-15T15:16:49.127Z,19.90
2023-05-15T15:19:20.113Z,19.80
2023-05-15T15:21:47.574Z,19.80
2023-05-15T15:24:14.954Z,19.40
2023-05-15T15:26:41.904Z,19.50
2023-05-15T15:29:08.785Z,19.90
2023-05-15T15:31:35.697Z,20.10
2023-05-15T15:34:05.300Z,19.80
2023-05-15T15:36:32.796Z,19.60
2023-05-15T15:38:59.688Z,19.50
2023-05-15T15:41:26.592Z,19.20
2023-05-15T15:43:53.844Z,19.00
2023-05-15T15:46:20.969Z,18.90
2023-05-15T15:48:48.515Z,18.90
2023-05-15T15:51:16.494Z,18.80
2023-05-15T15:53:43.419Z,18.60
2023-05-15T15:56:10.389Z,18.20
2023-05-15T15:58:37.296Z,17.30
2023-05-15T16:01:05.357Z,16.60
2023-05-15T16:03:32.657Z,16.10
2023-05-15T16:06:00.461Z,16.00
2023-05-15T16:08:27.622Z,15.80
2023-05-15T16:10:55.042Z,15.70
2023-05-15T16:13:22.217Z,15.40
2023-05-15T16:15:49.184Z,15.40
2023-05-15T16:18:16.673Z,15.50
2023-05-15T16:20:43.743Z,15.70
2023-05-15T16:23:14.205Z,16.20
2023-05-15T16:25:41.881Z,16.40
2023-05-15T16:28:10.035Z,16.40
2023-05-15T16:30:48.042Z,16.30
2023-05-15T16:33:17.818Z,16.30
2023-05-15T16:35:45.642Z,16.30
2023-05-15T16:38:13.251Z,16.40
2023-05-15T16:40:40.260Z,16.80
2023-05-15T16:43:07.172Z,17.00
2023-05-15T16:45:34.226Z,17.00
2023-05-15T16:48:01.702Z,16.80
2023-05-15T16:50:31.613Z,16.90
2023-05-15T16:52:59.003Z,16.60
2023-05-15T16:55:26.308Z,16.10
2023-05-15T16:57:53.299Z,15.80
2023-05-15T17:00:20.931Z,15.70
2023-05-15T17:02:48.386Z,15.80
2023-05-15T17:05:15.731Z,15.80
2023-05-15T17:07:44.634Z,15.90
2023-05-15T17:10:12.420Z,15.70
2023-05-15T17:12:39.666Z,15.90
2023-05-15T17:15:07.642Z,16.00
2023-05-15T17:17:34.608Z,16.10
2023-05-15T17:20:03.012Z,16.30
2023-05-15T17:22:30.501Z,16.30
2023-05-15T17:24:57.478Z,16.40
2023-05-15T17:27:24.476Z,16.50
2023-05-15T17:29:51.432Z,16.60
2023-05-15T17:32:19.181Z,16.50
2023-05-15T17:34:46.969Z,16.20
2023-05-15T17:37:14.724Z,16.30
2023-05-15T17:39:42.386Z,16.30
2023-05-15T17:42:09.452Z,16.40
2023-05-15T17:44:36.379Z,16.30
2023-05-15T17:47:03.461Z,16.10
2023-05-15T17:49:30.459Z,16.20
2023-05-15T17:51:57.454Z,16.30
2023-05-15T17:54:25.509Z,16.30
2023-05-15T17:56:52.440Z,16.30
2023-05-15T17:59:19.327Z,16.50
2023-05-15T18:01:46.757Z,16.50
2023-05-15T18:04:13.849Z,16.60
2023-05-15T18:06:41.115Z,16.60
2023-05-15T18:09:08.072Z,16.60
2023-05-15T18:11:35.090Z,16.70
2023-05-15T18:14:02.273Z,16.60
2023-05-15T18:16:31.110Z,16.70
2023-05-15T18:19:02.263Z,16.50
2023-05-15T18:21:30.603Z,16.50
2023-05-15T18:23:58.612Z,16.40
2023-05-15T18:26:25.902Z,16.40
2023-05-15T18:28:52.859Z,16.30
2023-05-15T18:31:19.851Z,16.40
2023-05-15T18:33:46.854Z,16.50
2023-05-15T18:36:14.577Z,16.60
2023-05-15T18:38:43.632Z,16.40
2023-05-15T18:41:10.519Z,16.20
2023-05-15T18:43:37.530Z,16.10
2023-05-15T18:46:05.746Z,16.20
2023-05-15T18:48:32.737Z,16.30
2023-05-15T18:50:59.836Z,16.30
2023-05-15T18:53:26.864Z,16.30
2023-05-15T18:55:54.116Z,16.30
2023-05-15T18:58:21.064Z,16.40
2023-05-15T19:00:47.963Z,16.50
2023-05-15T19:03:15.868Z,16.30
2023-05-15T19:05:42.942Z,16.30
2023-05-15T19:08:09.836Z,16.20
2023-05-15T19:10:38.198Z,16.20
2023-05-15T19:13:06.214Z,16.20
2023-05-15T19:15:36.186Z,16.00
2023-05-15T19:18:03.212Z,16.00
2023-05-15T19:20:30.324Z,16.00
2023-05-15T19:22:57.237Z,16.00
2023-05-15T19:25:24.369Z,15.90
2023-05-15T19:27:51.328Z,15.90
2023-05-15T19:30:18.311Z,16.10
2023-05-15T19:32:45.283Z,16.10
2023-05-15T19:35:12.271Z,16.10
2023-05-15T19:37:39.202Z,16.00
2023-05-15T19:40:07.240Z,16.00
2023-05-15T19:42:34.257Z,15.90
2023-05-15T19:45:03.976Z,15.90
2023-05-15T19:47:30.997Z,15.90
2023-05-15T19:49:57.974Z,15.90
2023-05-15T19:52:24.892Z,16.10
2023-05-15T19:54:51.807Z,16.00
2023-05-15T19:57:18.768Z,16.00
2023-05-15T19:59:45.741Z,16.00
2023-05-15T20:02:12.848Z,16.00
2023-05-15T20:04:39.806Z,15.90
2023-05-15T20:07:06.900Z,15.50
2023-05-15T20:09:33.868Z,15.20
2023-05-15T20:12:01.072Z,15.30
2023-05-15T20:14:28.009Z,15.50
2023-05-15T20:16:54.988Z,15.70
2023-05-15T20:19:22.979Z,15.90
2023-05-15T20:21:50.557Z,15.60
2023-05-15T20:24:18.135Z,15.30
2023-05-15T20:26:45.325Z,15.00
2023-05-15T20:29:12.284Z,14.60
2023-05-15T20:31:40.340Z,14.40
2023-05-15T20:34:08.310Z,14.50
2023-05-15T20:36:36.039Z,14.40
2023-05-15T20:39:05.892Z,14.50
2023-05-15T20:41:33.893Z,14.40
2023-05-15T20:44:01.014Z,14.30
2023-05-15T20:46:30.240Z,14.30
2023-05-15T20:48:57.565Z,14.40
2023-05-15T20:51:24.640Z,14.40
2023-05-15T20:53:51.613Z,14.40
2023-05-15T20:56:19.942Z,14.30
2023-05-15T20:58:46.860Z,14.30
2023-05-15T21:01:15.133Z,14.30
2023-05-15T21:03:43.322Z,14.40
2023-05-15T21:06:10.391Z,14.30
2023-05-15T21:08:37.326Z,14.40
2023-05-15T21:11:04.255Z,14.30
2023-05-15T21:13:31.155Z,14.30
2023-05-15T21:15:58.045Z,14.20
2023-05-15T21:18:25.031Z,14.20
2023-05-15T21:20:52.892Z,14.30
2023-05-15T21:23:21.070Z,14.40
2023-05-15T21:25:48.126Z,14.50
2023-05-15T21:28:15.549Z,14.60
2023-05-15T21:30:42.532Z,14.40
2023-05-15T21:33:09.585Z,14.00
2023-05-15T21:35:36.654Z,13.90
2023-05-15T21:38:03.535Z,13.80
2023-05-15T21:40:30.468Z,13.80
2023-05-15T21:42:57.415Z,13.80
2023-05-15T21:45:24.353Z,14.10
2023-05-15T21:47:51.273Z,14.10
2023-05-15T21:50:18.160Z,14.00
2023-05-15T21:52:45.107Z,14.10
2023-05-15T21:55:12.227Z,14.00
2023-05-15T21:57:39.154Z,13.90
2023-05-15T22:00:08.251Z,13.70
2023-05-15T22:02:35.471Z,13.40
2023-05-15T22:05:03.501Z,13.30
2023-05-15T22:07:30.504Z,13.30
2023-05-15T22:09:57.428Z,13.20
2023-05-15T22:12:24.487Z,13.20
2023-05-15T22:14:58.731Z,13.10
2023-05-15T22:17:29.183Z,13.00
2023-05-15T22:20:06.634Z,13.00
2023-05-15T22:22:35.610Z,13.10
2023-05-15T22:25:02.717Z,13.00
2023-05-15T22:27:29.751Z,13.00
2023-05-15T22:29:57.104Z,13.10
2023-05-15T22:32:24.649Z,13.20
2023-05-15T22:34:51.773Z,13.40
2023-05-15T22:37:19.079Z,13.50
2023-05-15T22:39:46.289Z,13.50
2023-05-15T22:42:13.365Z,13.70
2023-05-15T22:44:40.413Z,13.70
2023-05-15T22:47:07.810Z,13.80
2023-05-15T22:49:34.817Z,13.90
2023-05-15T22:52:01.805Z,13.80
2023-05-15T22:54:28.812Z,13.90
2023-05-15T22:56:56.096Z,13.90
2023-05-15T22:59:23.068Z,13.90
2023-05-15T23:01:50.356Z,13.70
2023-05-15T23:04:17.566Z,13.60
2023-05-15T23:06:44.731Z,13.70
2023-05-15T23:09:13.067Z,13.60
2023-05-15T23:11:39.951Z,13.50
2023-05-15T23:14:08.352Z,13.40
2023-05-15T23:16:36.165Z,13.20
2023-05-15T23:19:03.282Z,13.20
2023-05-15T23:21:30.265Z,13.20
2023-05-15T23:23:58.269Z,13.00
2023-05-15T23:26:25.956Z,13.00
2023-05-15T23:28:52.975Z,12.90
2023-05-15T23:31:20.554Z,13.00
2023-05-15T23:33:47.522Z,12.90
2023-05-15T23:36:14.481Z,12.90
2023-05-15T23:38:41.473Z,12.90
2023-05-15T23:41:08.640Z,13.10
2023-05-15T23:43:35.669Z,13.00
2023-05-15T23:46:02.983Z,13.00
2023-05-15T23:48:31.672Z,13.00
2023-05-15T23:50:58.769Z,13.00
2023-05-15T23:53:26.006Z,13.00
2023-05-15T23:55:53.108Z,12.90
2023-05-15T23:58:20.032Z,12.80
